sensor_id;sensor_type;location;lat;lon;timestamp;P1;durP1;ratioP1;P2;durP2;ratioP2
48951;SDS011;34758;42.148;24.744;2022-10-17T00:00:47;20.67;;;14.10;;
48951;SDS011;34758;42.148;24.744;2022-10-17T00:03:14;21.50;;;15.80;;
48951;SDS011;34758;42.148;24.744;2022-10-17T00:05:42;21.13;;;14.63;;
48951;SDS011;34758;42.148;24.744;2022-10-17T00:08:12;22.98;;;14.65;;
48951;SDS011;34758;42.148;24.744;2022-10-17T00:10:40;27.63;;;15.60;;
48951;SDS011;34758;42.148;24.744;2022-10-17T00:13:09;23.15;;;15.48;;
48951;SDS011;34758;42.148;24.744;2022-10-17T00:15:36;18.67;;;15.55;;
48951;SDS011;34758;42.148;24.744;2022-10-17T00:18:03;26.35;;;16.27;;
48951;SDS011;34758;42.148;24.744;2022-10-17T00:20:30;22.50;;;14.65;;
48951;SDS011;34758;42.148;24.744;2022-10-17T00:22:57;23.08;;;15.60;;
48951;SDS011;34758;42.148;24.744;2022-10-17T00:25:26;21.70;;;13.75;;
48951;SDS011;34758;42.148;24.744;2022-10-17T00:27:53;20.45;;;14.32;;
48951;SDS011;34758;42.148;24.744;2022-10-17T00:30:20;21.02;;;13.63;;
48951;SDS011;34758;42.148;24.744;2022-10-17T00:32:47;21.55;;;13.70;;
48951;SDS011;34758;42.148;24.744;2022-10-17T00:35:13;18.42;;;13.77;;
48951;SDS011;34758;42.148;24.744;2022-10-17T00:37:40;19.67;;;13.68;;
48951;SDS011;34758;42.148;24.744;2022-10-17T00:40:08;16.30;;;12.10;;
48951;SDS011;34758;42.148;24.744;2022-10-17T00:42:37;20.90;;;13.30;;
48951;SDS011;34758;42.148;24.744;2022-10-17T00:45:12;18.60;;;12.88;;
48951;SDS011;34758;42.148;24.744;2022-10-17T00:47:41;19.90;;;13.35;;
48951;SDS011;34758;42.148;24.744;2022-10-17T00:50:09;16.90;;;11.60;;
48951;SDS011;34758;42.148;24.744;2022-10-17T00:52:36;20.92;;;11.73;;
48951;SDS011;34758;42.148;24.744;2022-10-17T00:55:05;16.75;;;10.80;;
48951;SDS011;34758;42.148;24.744;2022-10-17T00:57:35;14.02;;;10.07;;
48951;SDS011;34758;42.148;24.744;2022-10-17T01:00:05;15.80;;;10.25;;
48951;SDS011;34758;42.148;24.744;2022-10-17T01:02:33;13.02;;;9.68;;
48951;SDS011;34758;42.148;24.744;2022-10-17T01:05:00;11.70;;;9.20;;
48951;SDS011;34758;42.148;24.744;2022-10-17T01:07:28;14.02;;;10.40;;
48951;SDS011;34758;42.148;24.744;2022-10-17T01:09:56;16.40;;;10.13;;
48951;SDS011;34758;42.148;24.744;2022-10-17T01:12:23;13.07;;;10.15;;
48951;SDS011;34758;42.148;24.744;2022-10-17T01:15:02;17.83;;;10.05;;
48951;SDS011;34758;42.148;24.744;2022-10-17T01:17:35;13.88;;;9.60;;
48951;SDS011;34758;42.148;24.744;2022-10-17T01:20:13;13.73;;;9.00;;
48951;SDS011;34758;42.148;24.744;2022-10-17T01:22:50;12.63;;;9.00;;
48951;SDS011;34758;42.148;24.744;2022-10-17T01:25:26;14.60;;;8.95;;
48951;SDS011;34758;42.148;24.744;2022-10-17T01:28:00;11.65;;;8.27;;
48951;SDS011;34758;42.148;24.744;2022-10-17T01:33:26;12.48;;;7.85;;
48951;SDS011;34758;42.148;24.744;2022-10-17T01:35:58;12.05;;;8.38;;
48951;SDS011;34758;42.148;24.744;2022-10-17T01:38:29;14.90;;;7.90;;
48951;SDS011;34758;42.148;24.744;2022-10-17T01:40:59;12.98;;;8.30;;
48951;SDS011;34758;42.148;24.744;2022-10-17T01:43:31;12.88;;;8.20;;
48951;SDS011;34758;42.148;24.744;2022-10-17T01:46:02;10.60;;;7.20;;
48951;SDS011;34758;42.148;24.744;2022-10-17T01:48:34;13.10;;;8.07;;
48951;SDS011;34758;42.148;24.744;2022-10-17T01:51:04;13.35;;;8.35;;
48951;SDS011;34758;42.148;24.744;2022-10-17T01:53:35;16.23;;;7.32;;
48951;SDS011;34758;42.148;24.744;2022-10-17T01:56:05;15.40;;;8.07;;
48951;SDS011;34758;42.148;24.744;2022-10-17T01:58:35;13.27;;;9.10;;
48951;SDS011;34758;42.148;24.744;2022-10-17T02:01:06;13.05;;;8.25;;
48951;SDS011;34758;42.148;24.744;2022-10-17T02:03:34;12.85;;;8.43;;
48951;SDS011;34758;42.148;24.744;2022-10-17T02:06:01;12.95;;;7.72;;
48951;SDS011;34758;42.148;24.744;2022-10-17T02:08:38;8.70;;;6.70;;
48951;SDS011;34758;42.148;24.744;2022-10-17T02:11:10;11.90;;;7.45;;
48951;SDS011;34758;42.148;24.744;2022-10-17T02:13:43;11.10;;;7.13;;
48951;SDS011;34758;42.148;24.744;2022-10-17T02:16:19;12.18;;;7.35;;
48951;SDS011;34758;42.148;24.744;2022-10-17T02:19:00;10.93;;;7.07;;
48951;SDS011;34758;42.148;24.744;2022-10-17T02:21:37;11.23;;;6.43;;
48951;SDS011;34758;42.148;24.744;2022-10-17T02:24:10;11.20;;;7.50;;
48951;SDS011;34758;42.148;24.744;2022-10-17T02:26:43;10.95;;;6.93;;
48951;SDS011;34758;42.148;24.744;2022-10-17T02:29:13;9.63;;;6.38;;
48951;SDS011;34758;42.148;24.744;2022-10-17T02:31:44;16.95;;;7.15;;
48951;SDS011;34758;42.148;24.744;2022-10-17T02:34:14;12.82;;;7.10;;
48951;SDS011;34758;42.148;24.744;2022-10-17T02:36:44;11.57;;;6.75;;
48951;SDS011;34758;42.148;24.744;2022-10-17T02:39:13;9.98;;;6.50;;
48951;SDS011;34758;42.148;24.744;2022-10-17T02:41:41;11.07;;;7.30;;
48951;SDS011;34758;42.148;24.744;2022-10-17T02:44:08;10.63;;;6.20;;
48951;SDS011;34758;42.148;24.744;2022-10-17T02:46:36;12.88;;;6.97;;
48951;SDS011;34758;42.148;24.744;2022-10-17T02:49:06;12.48;;;7.15;;
48951;SDS011;34758;42.148;24.744;2022-10-17T02:51:37;10.40;;;6.40;;
48951;SDS011;34758;42.148;24.744;2022-10-17T02:54:08;10.65;;;6.97;;
48951;SDS011;34758;42.148;24.744;2022-10-17T02:56:40;16.15;;;6.63;;
48951;SDS011;34758;42.148;24.744;2022-10-17T02:59:10;8.70;;;6.68;;
48951;SDS011;34758;42.148;24.744;2022-10-17T03:01:38;13.63;;;6.65;;
48951;SDS011;34758;42.148;24.744;2022-10-17T03:04:07;11.82;;;6.40;;
48951;SDS011;34758;42.148;24.744;2022-10-17T03:06:35;10.07;;;6.53;;
48951;SDS011;34758;42.148;24.744;2022-10-17T03:09:02;10.80;;;7.10;;
48951;SDS011;34758;42.148;24.744;2022-10-17T03:11:30;10.30;;;6.47;;
48951;SDS011;34758;42.148;24.744;2022-10-17T03:13:57;11.60;;;6.32;;
48951;SDS011;34758;42.148;24.744;2022-10-17T03:16:24;7.50;;;5.63;;
48951;SDS011;34758;42.148;24.744;2022-10-17T03:18:51;10.85;;;6.78;;
48951;SDS011;34758;42.148;24.744;2022-10-17T03:21:20;9.80;;;6.22;;
48951;SDS011;34758;42.148;24.744;2022-10-17T03:23:47;8.07;;;5.13;;
48951;SDS011;34758;42.148;24.744;2022-10-17T03:26:14;8.98;;;5.40;;
48951;SDS011;34758;42.148;24.744;2022-10-17T03:28:41;8.98;;;5.53;;
48951;SDS011;34758;42.148;24.744;2022-10-17T03:31:08;9.20;;;6.00;;
48951;SDS011;34758;42.148;24.744;2022-10-17T03:33:36;9.82;;;5.22;;
48951;SDS011;34758;42.148;24.744;2022-10-17T03:36:04;8.07;;;5.88;;
48951;SDS011;34758;42.148;24.744;2022-10-17T03:38:34;8.95;;;5.30;;
48951;SDS011;34758;42.148;24.744;2022-10-17T03:41:01;10.25;;;5.72;;
48951;SDS011;34758;42.148;24.744;2022-10-17T03:43:28;9.90;;;5.93;;
48951;SDS011;34758;42.148;24.744;2022-10-17T03:45:56;9.75;;;5.65;;
48951;SDS011;34758;42.148;24.744;2022-10-17T03:48:23;9.00;;;5.90;;
48951;SDS011;34758;42.148;24.744;2022-10-17T03:50:50;10.38;;;5.97;;
48951;SDS011;34758;42.148;24.744;2022-10-17T03:53:17;9.25;;;6.28;;
48951;SDS011;34758;42.148;24.744;2022-10-17T03:55:46;7.43;;;5.82;;
48951;SDS011;34758;42.148;24.744;2022-10-17T03:58:13;8.07;;;6.10;;
48951;SDS011;34758;42.148;24.744;2022-10-17T04:00:40;8.43;;;5.80;;
48951;SDS011;34758;42.148;24.744;2022-10-17T04:03:08;7.78;;;5.03;;
48951;SDS011;34758;42.148;24.744;2022-10-17T04:05:36;8.65;;;5.45;;
48951;SDS011;34758;42.148;24.744;2022-10-17T04:08:04;8.63;;;5.57;;
48951;SDS011;34758;42.148;24.744;2022-10-17T04:10:31;7.75;;;5.53;;
48951;SDS011;34758;42.148;24.744;2022-10-17T04:12:59;8.25;;;5.40;;
48951;SDS011;34758;42.148;24.744;2022-10-17T04:15:26;8.35;;;5.47;;
48951;SDS011;34758;42.148;24.744;2022-10-17T04:17:54;12.48;;;5.68;;
48951;SDS011;34758;42.148;24.744;2022-10-17T04:20:21;7.28;;;5.22;;
48951;SDS011;34758;42.148;24.744;2022-10-17T04:22:48;10.40;;;5.40;;
48951;SDS011;34758;42.148;24.744;2022-10-17T04:25:15;8.55;;;5.45;;
48951;SDS011;34758;42.148;24.744;2022-10-17T04:27:43;7.93;;;5.25;;
48951;SDS011;34758;42.148;24.744;2022-10-17T04:30:12;10.30;;;6.43;;
48951;SDS011;34758;42.148;24.744;2022-10-17T04:32:39;8.65;;;5.88;;
48951;SDS011;34758;42.148;24.744;2022-10-17T04:35:07;7.13;;;5.18;;
48951;SDS011;34758;42.148;24.744;2022-10-17T04:37:34;9.95;;;5.65;;
48951;SDS011;34758;42.148;24.744;2022-10-17T04:40:03;7.63;;;5.38;;
48951;SDS011;34758;42.148;24.744;2022-10-17T04:42:31;8.02;;;6.22;;
48951;SDS011;34758;42.148;24.744;2022-10-17T04:44:58;6.80;;;5.03;;
48951;SDS011;34758;42.148;24.744;2022-10-17T04:47:26;8.35;;;5.05;;
48951;SDS011;34758;42.148;24.744;2022-10-17T04:49:53;8.93;;;6.00;;
48951;SDS011;34758;42.148;24.744;2022-10-17T04:52:20;10.10;;;5.13;;
48951;SDS011;34758;42.148;24.744;2022-10-17T04:54:47;8.02;;;4.78;;
48951;SDS011;34758;42.148;24.744;2022-10-17T04:57:15;6.75;;;4.80;;
48951;SDS011;34758;42.148;24.744;2022-10-17T04:59:42;8.38;;;5.28;;
48951;SDS011;34758;42.148;24.744;2022-10-17T05:02:09;7.50;;;5.32;;
48951;SDS011;34758;42.148;24.744;2022-10-17T05:04:37;7.00;;;5.30;;
48951;SDS011;34758;42.148;24.744;2022-10-17T05:07:05;8.85;;;5.53;;
48951;SDS011;34758;42.148;24.744;2022-10-17T05:09:32;10.00;;;5.28;;
48951;SDS011;34758;42.148;24.744;2022-10-17T05:11:59;15.05;;;5.85;;
48951;SDS011;34758;42.148;24.744;2022-10-17T05:14:27;8.20;;;5.47;;
48951;SDS011;34758;42.148;24.744;2022-10-17T05:16:54;7.22;;;5.78;;
48951;SDS011;34758;42.148;24.744;2022-10-17T05:19:22;10.05;;;5.78;;
48951;SDS011;34758;42.148;24.744;2022-10-17T05:21:50;8.70;;;5.53;;
48951;SDS011;34758;42.148;24.744;2022-10-17T05:24:17;22.60;;;11.93;;
48951;SDS011;34758;42.148;24.744;2022-10-17T05:26:45;10.98;;;6.43;;
48951;SDS011;34758;42.148;24.744;2022-10-17T05:29:11;9.98;;;5.95;;
48951;SDS011;34758;42.148;24.744;2022-10-17T05:31:38;10.73;;;6.60;;
48951;SDS011;34758;42.148;24.744;2022-10-17T05:34:05;12.50;;;6.40;;
48951;SDS011;34758;42.148;24.744;2022-10-17T05:36:33;8.80;;;6.10;;
48951;SDS011;34758;42.148;24.744;2022-10-17T05:39:01;10.25;;;6.47;;
48951;SDS011;34758;42.148;24.744;2022-10-17T05:41:28;10.98;;;6.65;;
48951;SDS011;34758;42.148;24.744;2022-10-17T05:43:55;11.95;;;6.85;;
48951;SDS011;34758;42.148;24.744;2022-10-17T05:46:23;9.40;;;6.03;;
48951;SDS011;34758;42.148;24.744;2022-10-17T05:48:50;10.88;;;6.07;;
48951;SDS011;34758;42.148;24.744;2022-10-17T05:51:19;11.95;;;5.97;;
48951;SDS011;34758;42.148;24.744;2022-10-17T05:53:46;11.43;;;6.22;;
48951;SDS011;34758;42.148;24.744;2022-10-17T05:56:15;9.70;;;6.82;;
48951;SDS011;34758;42.148;24.744;2022-10-17T05:58:44;12.38;;;6.95;;
48951;SDS011;34758;42.148;24.744;2022-10-17T06:01:11;9.23;;;6.70;;
48951;SDS011;34758;42.148;24.744;2022-10-17T06:03:39;13.73;;;6.43;;
48951;SDS011;34758;42.148;24.744;2022-10-17T06:06:06;12.73;;;6.65;;
48951;SDS011;34758;42.148;24.744;2022-10-17T06:08:34;10.93;;;6.05;;
48951;SDS011;34758;42.148;24.744;2022-10-17T06:11:01;10.45;;;5.63;;
48951;SDS011;34758;42.148;24.744;2022-10-17T06:13:30;9.25;;;6.50;;
48951;SDS011;34758;42.148;24.744;2022-10-17T06:15:57;13.15;;;6.45;;
48951;SDS011;34758;42.148;24.744;2022-10-17T06:18:24;8.52;;;5.63;;
48951;SDS011;34758;42.148;24.744;2022-10-17T06:20:51;13.10;;;5.72;;
48951;SDS011;34758;42.148;24.744;2022-10-17T06:23:18;9.63;;;5.78;;
48951;SDS011;34758;42.148;24.744;2022-10-17T06:25:45;7.55;;;5.03;;
48951;SDS011;34758;42.148;24.744;2022-10-17T06:28:12;14.27;;;6.28;;
48951;SDS011;34758;42.148;24.744;2022-10-17T06:30:40;12.15;;;6.07;;
48951;SDS011;34758;42.148;24.744;2022-10-17T06:33:07;10.52;;;6.07;;
48951;SDS011;34758;42.148;24.744;2022-10-17T06:35:34;10.52;;;5.00;;
48951;SDS011;34758;42.148;24.744;2022-10-17T06:38:02;9.55;;;5.55;;
48951;SDS011;34758;42.148;24.744;2022-10-17T06:40:29;15.00;;;6.32;;
48951;SDS011;34758;42.148;24.744;2022-10-17T06:42:56;10.98;;;6.50;;
48951;SDS011;34758;42.148;24.744;2022-10-17T06:45:23;13.55;;;5.82;;
48951;SDS011;34758;42.148;24.744;2022-10-17T06:47:52;8.88;;;5.40;;
48951;SDS011;34758;42.148;24.744;2022-10-17T06:50:19;13.57;;;5.90;;
48951;SDS011;34758;42.148;24.744;2022-10-17T06:52:49;10.85;;;6.20;;
48951;SDS011;34758;42.148;24.744;2022-10-17T06:55:16;8.65;;;6.00;;
48951;SDS011;34758;42.148;24.744;2022-10-17T06:57:43;13.13;;;6.45;;
48951;SDS011;34758;42.148;24.744;2022-10-17T07:00:11;9.57;;;6.07;;
48951;SDS011;34758;42.148;24.744;2022-10-17T07:02:38;11.73;;;7.00;;
48951;SDS011;34758;42.148;24.744;2022-10-17T07:05:07;9.30;;;6.05;;
48951;SDS011;34758;42.148;24.744;2022-10-17T07:07:34;15.60;;;6.05;;
48951;SDS011;34758;42.148;24.744;2022-10-17T07:10:01;9.68;;;5.60;;
48951;SDS011;34758;42.148;24.744;2022-10-17T07:12:33;12.60;;;6.20;;
48951;SDS011;34758;42.148;24.744;2022-10-17T07:15:00;9.40;;;5.65;;
48951;SDS011;34758;42.148;24.744;2022-10-17T07:17:28;11.55;;;6.05;;
48951;SDS011;34758;42.148;24.744;2022-10-17T07:19:55;10.90;;;6.93;;
48951;SDS011;34758;42.148;24.744;2022-10-17T07:22:24;8.40;;;6.07;;
48951;SDS011;34758;42.148;24.744;2022-10-17T07:24:51;10.77;;;6.13;;
48951;SDS011;34758;42.148;24.744;2022-10-17T07:27:19;10.95;;;6.80;;
48951;SDS011;34758;42.148;24.744;2022-10-17T07:29:45;13.85;;;6.70;;
48951;SDS011;34758;42.148;24.744;2022-10-17T07:32:13;15.90;;;14.05;;
48951;SDS011;34758;42.148;24.744;2022-10-17T07:34:40;10.65;;;7.03;;
48951;SDS011;34758;42.148;24.744;2022-10-17T07:37:07;10.38;;;6.65;;
48951;SDS011;34758;42.148;24.744;2022-10-17T07:39:35;10.45;;;5.30;;
48951;SDS011;34758;42.148;24.744;2022-10-17T07:42:04;6.75;;;5.55;;
48951;SDS011;34758;42.148;24.744;2022-10-17T07:44:32;10.48;;;6.43;;
48951;SDS011;34758;42.148;24.744;2022-10-17T07:47:00;11.88;;;6.28;;
48951;SDS011;34758;42.148;24.744;2022-10-17T07:49:27;8.40;;;6.05;;
48951;SDS011;34758;42.148;24.744;2022-10-17T07:51:55;6.68;;;4.93;;
48951;SDS011;34758;42.148;24.744;2022-10-17T07:54:22;11.35;;;6.40;;
48951;SDS011;34758;42.148;24.744;2022-10-17T07:56:50;8.02;;;5.38;;
48951;SDS011;34758;42.148;24.744;2022-10-17T07:59:17;8.88;;;5.35;;
48951;SDS011;34758;42.148;24.744;2022-10-17T08:01:45;6.63;;;5.28;;
48951;SDS011;34758;42.148;24.744;2022-10-17T08:04:12;9.18;;;5.88;;
48951;SDS011;34758;42.148;24.744;2022-10-17T08:06:40;7.95;;;5.53;;
48951;SDS011;34758;42.148;24.744;2022-10-17T08:09:07;7.55;;;6.13;;
48951;SDS011;34758;42.148;24.744;2022-10-17T08:11:36;10.32;;;6.00;;
48951;SDS011;34758;42.148;24.744;2022-10-17T08:14:04;9.38;;;6.45;;
48951;SDS011;34758;42.148;24.744;2022-10-17T08:16:31;9.60;;;5.97;;
48951;SDS011;34758;42.148;24.744;2022-10-17T08:18:58;9.07;;;6.20;;
48951;SDS011;34758;42.148;24.744;2022-10-17T08:21:25;7.72;;;5.30;;
48951;SDS011;34758;42.148;24.744;2022-10-17T08:23:52;8.48;;;5.88;;
48951;SDS011;34758;42.148;24.744;2022-10-17T08:26:19;8.35;;;6.15;;
48951;SDS011;34758;42.148;24.744;2022-10-17T08:28:46;13.55;;;6.00;;
48951;SDS011;34758;42.148;24.744;2022-10-17T08:31:15;9.90;;;6.35;;
48951;SDS011;34758;42.148;24.744;2022-10-17T08:33:44;10.32;;;6.53;;
48951;SDS011;34758;42.148;24.744;2022-10-17T08:36:12;11.48;;;6.55;;
48951;SDS011;34758;42.148;24.744;2022-10-17T08:38:40;9.38;;;6.28;;
48951;SDS011;34758;42.148;24.744;2022-10-17T08:41:12;11.25;;;6.13;;
48951;SDS011;34758;42.148;24.744;2022-10-17T08:43:47;11.70;;;6.03;;
48951;SDS011;34758;42.148;24.744;2022-10-17T08:46:33;9.63;;;6.18;;
48951;SDS011;34758;42.148;24.744;2022-10-17T08:49:05;11.80;;;6.38;;
48951;SDS011;34758;42.148;24.744;2022-10-17T08:51:37;13.23;;;7.55;;
48951;SDS011;34758;42.148;24.744;2022-10-17T08:54:10;9.70;;;5.80;;
48951;SDS011;34758;42.148;24.744;2022-10-17T08:56:42;11.77;;;6.68;;
48951;SDS011;34758;42.148;24.744;2022-10-17T08:59:10;8.07;;;6.20;;
48951;SDS011;34758;42.148;24.744;2022-10-17T09:01:40;7.75;;;5.40;;
48951;SDS011;34758;42.148;24.744;2022-10-17T09:04:18;14.40;;;6.30;;
48951;SDS011;34758;42.148;24.744;2022-10-17T09:07:00;7.93;;;5.22;;
48951;SDS011;34758;42.148;24.744;2022-10-17T09:09:34;9.10;;;5.50;;
48951;SDS011;34758;42.148;24.744;2022-10-17T09:12:10;7.93;;;5.03;;
48951;SDS011;34758;42.148;24.744;2022-10-17T09:14:49;8.57;;;5.45;;
48951;SDS011;34758;42.148;24.744;2022-10-17T09:17:26;9.18;;;5.57;;
48951;SDS011;34758;42.148;24.744;2022-10-17T09:19:59;10.52;;;5.35;;
48951;SDS011;34758;42.148;24.744;2022-10-17T09:22:31;7.32;;;5.82;;
48951;SDS011;34758;42.148;24.744;2022-10-17T09:25:01;6.65;;;4.75;;
48951;SDS011;34758;42.148;24.744;2022-10-17T09:27:32;9.95;;;4.88;;
48951;SDS011;34758;42.148;24.744;2022-10-17T09:30:11;9.52;;;4.90;;
48951;SDS011;34758;42.148;24.744;2022-10-17T09:32:45;6.43;;;4.38;;
48951;SDS011;34758;42.148;24.744;2022-10-17T09:35:12;7.72;;;4.38;;
48951;SDS011;34758;42.148;24.744;2022-10-17T09:37:40;9.50;;;4.20;;
48951;SDS011;34758;42.148;24.744;2022-10-17T09:40:12;7.43;;;4.00;;
48951;SDS011;34758;42.148;24.744;2022-10-17T09:42:44;9.07;;;4.95;;
48951;SDS011;34758;42.148;24.744;2022-10-17T09:45:14;6.22;;;4.00;;
48951;SDS011;34758;42.148;24.744;2022-10-17T09:47:46;6.40;;;3.70;;
48951;SDS011;34758;42.148;24.744;2022-10-17T09:50:17;10.20;;;3.70;;
48951;SDS011;34758;42.148;24.744;2022-10-17T09:55:16;9.80;;;4.13;;
48951;SDS011;34758;42.148;24.744;2022-10-17T09:57:53;5.80;;;3.80;;
48951;SDS011;34758;42.148;24.744;2022-10-17T10:00:22;10.25;;;4.28;;
48951;SDS011;34758;42.148;24.744;2022-10-17T10:02:52;5.25;;;3.75;;
48951;SDS011;34758;42.148;24.744;2022-10-17T10:05:34;8.23;;;3.83;;
48951;SDS011;34758;42.148;24.744;2022-10-17T10:08:01;10.88;;;4.65;;
48951;SDS011;34758;42.148;24.744;2022-10-17T10:10:30;8.23;;;4.00;;
48951;SDS011;34758;42.148;24.744;2022-10-17T10:13:01;5.40;;;3.65;;
48951;SDS011;34758;42.148;24.744;2022-10-17T10:15:34;5.93;;;2.70;;
48951;SDS011;34758;42.148;24.744;2022-10-17T10:18:07;5.70;;;2.75;;
48951;SDS011;34758;42.148;24.744;2022-10-17T10:21:02;6.88;;;3.00;;
48951;SDS011;34758;42.148;24.744;2022-10-17T10:23:39;6.30;;;2.85;;
48951;SDS011;34758;42.148;24.744;2022-10-17T10:26:16;4.90;;;2.47;;
48951;SDS011;34758;42.148;24.744;2022-10-17T10:28:50;5.85;;;2.70;;
48951;SDS011;34758;42.148;24.744;2022-10-17T10:31:30;4.93;;;2.03;;
48951;SDS011;34758;42.148;24.744;2022-10-17T10:34:10;5.57;;;2.30;;
48951;SDS011;34758;42.148;24.744;2022-10-17T10:36:44;4.60;;;2.90;;
48951;SDS011;34758;42.148;24.744;2022-10-17T10:42:15;5.45;;;1.80;;
48951;SDS011;34758;42.148;24.744;2022-10-17T10:44:45;4.72;;;1.92;;
48951;SDS011;34758;42.148;24.744;2022-10-17T10:47:14;4.97;;;1.83;;
48951;SDS011;34758;42.148;24.744;2022-10-17T10:49:47;7.57;;;2.00;;
48951;SDS011;34758;42.148;24.744;2022-10-17T10:52:19;4.40;;;1.85;;
48951;SDS011;34758;42.148;24.744;2022-10-17T10:54:52;4.18;;;2.28;;
48951;SDS011;34758;42.148;24.744;2022-10-17T10:57:30;3.90;;;1.90;;
48951;SDS011;34758;42.148;24.744;2022-10-17T11:00:00;4.18;;;2.45;;
48951;SDS011;34758;42.148;24.744;2022-10-17T11:05:02;6.10;;;2.67;;
48951;SDS011;34758;42.148;24.744;2022-10-17T11:07:31;7.30;;;2.28;;
48951;SDS011;34758;42.148;24.744;2022-10-17T11:10:02;6.70;;;2.10;;
48951;SDS011;34758;42.148;24.744;2022-10-17T11:12:37;4.20;;;2.50;;
48951;SDS011;34758;42.148;24.744;2022-10-17T11:15:12;3.78;;;1.73;;
48951;SDS011;34758;42.148;24.744;2022-10-17T11:17:44;4.03;;;2.42;;
48951;SDS011;34758;42.148;24.744;2022-10-17T11:20:17;5.73;;;2.10;;
48951;SDS011;34758;42.148;24.744;2022-10-17T11:22:46;4.32;;;2.30;;
48951;SDS011;34758;42.148;24.744;2022-10-17T11:25:18;6.07;;;2.10;;
48951;SDS011;34758;42.148;24.744;2022-10-17T11:27:50;4.00;;;1.98;;
48951;SDS011;34758;42.148;24.744;2022-10-17T11:30:17;3.20;;;2.10;;
48951;SDS011;34758;42.148;24.744;2022-10-17T11:32:47;9.13;;;2.70;;
48951;SDS011;34758;42.148;24.744;2022-10-17T11:35:20;5.40;;;2.17;;
48951;SDS011;34758;42.148;24.744;2022-10-17T11:37:52;3.67;;;2.00;;
48951;SDS011;34758;42.148;24.744;2022-10-17T11:40:26;4.13;;;2.42;;
48951;SDS011;34758;42.148;24.744;2022-10-17T11:42:56;5.55;;;2.20;;
48951;SDS011;34758;42.148;24.744;2022-10-17T11:45:25;4.68;;;2.42;;
48951;SDS011;34758;42.148;24.744;2022-10-17T11:48:01;4.57;;;1.80;;
48951;SDS011;34758;42.148;24.744;2022-10-17T11:50:34;5.87;;;2.87;;
48951;SDS011;34758;42.148;24.744;2022-10-17T11:53:04;6.95;;;1.98;;
48951;SDS011;34758;42.148;24.744;2022-10-17T11:55:35;6.63;;;2.17;;
48951;SDS011;34758;42.148;24.744;2022-10-17T11:58:18;3.38;;;1.80;;
48951;SDS011;34758;42.148;24.744;2022-10-17T12:00:56;7.20;;;2.30;;
48951;SDS011;34758;42.148;24.744;2022-10-17T12:03:37;4.55;;;1.80;;
48951;SDS011;34758;42.148;24.744;2022-10-17T12:06:12;4.07;;;2.17;;
48951;SDS011;34758;42.148;24.744;2022-10-17T12:08:45;4.75;;;2.33;;
48951;SDS011;34758;42.148;24.744;2022-10-17T12:11:18;3.20;;;1.80;;
48951;SDS011;34758;42.148;24.744;2022-10-17T12:13:53;4.22;;;1.90;;
48951;SDS011;34758;42.148;24.744;2022-10-17T12:16:37;4.97;;;1.88;;
48951;SDS011;34758;42.148;24.744;2022-10-17T12:22:03;4.10;;;2.15;;
48951;SDS011;34758;42.148;24.744;2022-10-17T12:24:36;2.92;;;2.10;;
48951;SDS011;34758;42.148;24.744;2022-10-17T12:27:20;3.13;;;2.05;;
48951;SDS011;34758;42.148;24.744;2022-10-17T12:29:48;2.57;;;1.90;;
48951;SDS011;34758;42.148;24.744;2022-10-17T12:32:16;3.83;;;2.05;;
48951;SDS011;34758;42.148;24.744;2022-10-17T12:34:50;2.58;;;1.67;;
48951;SDS011;34758;42.148;24.744;2022-10-17T12:46:01;3.33;;;1.88;;
48951;SDS011;34758;42.148;24.744;2022-10-17T12:51:24;4.78;;;1.50;;
48951;SDS011;34758;42.148;24.744;2022-10-17T12:53:56;5.57;;;2.00;;
48951;SDS011;34758;42.148;24.744;2022-10-17T12:56:35;5.47;;;1.90;;
48951;SDS011;34758;42.148;24.744;2022-10-17T12:59:08;4.85;;;1.70;;
48951;SDS011;34758;42.148;24.744;2022-10-17T13:01:42;3.75;;;1.45;;
48951;SDS011;34758;42.148;24.744;2022-10-17T13:04:14;5.88;;;1.45;;
48951;SDS011;34758;42.148;24.744;2022-10-17T13:06:44;2.05;;;1.50;;
48951;SDS011;34758;42.148;24.744;2022-10-17T13:09:16;1.80;;;1.42;;
48951;SDS011;34758;42.148;24.744;2022-10-17T13:11:49;5.25;;;2.33;;
48951;SDS011;34758;42.148;24.744;2022-10-17T13:14:17;16.17;;;1.92;;
48951;SDS011;34758;42.148;24.744;2022-10-17T13:16:49;6.13;;;1.83;;
48951;SDS011;34758;42.148;24.744;2022-10-17T13:19:18;4.28;;;1.85;;
48951;SDS011;34758;42.148;24.744;2022-10-17T13:21:50;5.22;;;1.67;;
48951;SDS011;34758;42.148;24.744;2022-10-17T13:24:21;2.28;;;1.60;;
48951;SDS011;34758;42.148;24.744;2022-10-17T13:26:50;2.88;;;1.58;;
48951;SDS011;34758;42.148;24.744;2022-10-17T13:29:17;2.67;;;1.33;;
48951;SDS011;34758;42.148;24.744;2022-10-17T13:31:50;4.63;;;1.73;;
48951;SDS011;34758;42.148;24.744;2022-10-17T13:34:19;4.10;;;1.83;;
48951;SDS011;34758;42.148;24.744;2022-10-17T13:36:49;3.28;;;1.50;;
48951;SDS011;34758;42.148;24.744;2022-10-17T13:39:18;3.53;;;1.90;;
48951;SDS011;34758;42.148;24.744;2022-10-17T13:41:46;3.35;;;2.10;;
48951;SDS011;34758;42.148;24.744;2022-10-17T13:44:16;3.42;;;1.83;;
48951;SDS011;34758;42.148;24.744;2022-10-17T13:46:44;4.18;;;2.08;;
48951;SDS011;34758;42.148;24.744;2022-10-17T13:49:17;3.88;;;1.80;;
48951;SDS011;34758;42.148;24.744;2022-10-17T13:51:48;3.55;;;1.90;;
48951;SDS011;34758;42.148;24.744;2022-10-17T13:54:18;3.75;;;1.52;;
48951;SDS011;34758;42.148;24.744;2022-10-17T13:56:54;6.65;;;2.05;;
48951;SDS011;34758;42.148;24.744;2022-10-17T13:59:24;6.70;;;2.05;;
48951;SDS011;34758;42.148;24.744;2022-10-17T14:01:52;4.95;;;2.22;;
48951;SDS011;34758;42.148;24.744;2022-10-17T14:04:20;5.25;;;2.20;;
48951;SDS011;34758;42.148;24.744;2022-10-17T14:06:48;5.65;;;2.83;;
48951;SDS011;34758;42.148;24.744;2022-10-17T14:09:16;8.70;;;3.25;;
48951;SDS011;34758;42.148;24.744;2022-10-17T14:11:55;3.88;;;2.47;;
48951;SDS011;34758;42.148;24.744;2022-10-17T14:14:25;3.90;;;2.08;;
48951;SDS011;34758;42.148;24.744;2022-10-17T14:16:54;6.70;;;1.85;;
48951;SDS011;34758;42.148;24.744;2022-10-17T14:19:23;5.13;;;2.28;;
48951;SDS011;34758;42.148;24.744;2022-10-17T14:21:54;3.38;;;2.17;;
48951;SDS011;34758;42.148;24.744;2022-10-17T14:24:30;6.32;;;2.35;;
48951;SDS011;34758;42.148;24.744;2022-10-17T14:27:01;2.83;;;1.85;;
48951;SDS011;34758;42.148;24.744;2022-10-17T14:29:31;6.97;;;2.92;;
48951;SDS011;34758;42.148;24.744;2022-10-17T14:32:15;6.35;;;2.30;;
48951;SDS011;34758;42.148;24.744;2022-10-17T14:34:43;4.75;;;2.63;;
48951;SDS011;34758;42.148;24.744;2022-10-17T14:37:11;7.25;;;2.95;;
48951;SDS011;34758;42.148;24.744;2022-10-17T14:39:47;6.65;;;2.50;;
48951;SDS011;34758;42.148;24.744;2022-10-17T14:42:16;7.68;;;2.38;;
48951;SDS011;34758;42.148;24.744;2022-10-17T14:44:46;5.13;;;2.80;;
48951;SDS011;34758;42.148;24.744;2022-10-17T14:47:15;3.80;;;2.58;;
48951;SDS011;34758;42.148;24.744;2022-10-17T14:49:48;5.22;;;2.50;;
48951;SDS011;34758;42.148;24.744;2022-10-17T14:52:26;5.43;;;2.80;;
48951;SDS011;34758;42.148;24.744;2022-10-17T14:54:54;5.20;;;2.80;;
48951;SDS011;34758;42.148;24.744;2022-10-17T14:57:24;4.28;;;2.85;;
48951;SDS011;34758;42.148;24.744;2022-10-17T14:59:54;7.35;;;2.53;;
48951;SDS011;34758;42.148;24.744;2022-10-17T15:02:22;5.35;;;2.85;;
48951;SDS011;34758;42.148;24.744;2022-10-17T15:04:49;4.00;;;2.47;;
48951;SDS011;34758;42.148;24.744;2022-10-17T15:07:16;5.65;;;2.45;;
48951;SDS011;34758;42.148;24.744;2022-10-17T15:09:46;7.50;;;2.85;;